createdAt,value
2016-10-27T00:00:04.066Z,157.50
2016-10-27T00:01:04.583Z,157.50
2016-10-27T00:02:05.106Z,180.00
2016-10-27T00:03:05.617Z,157.50
2016-10-27T00:04:06.124Z,135.00
2016-10-27T00:05:06.627Z,112.50
2016-10-27T00:06:07.177Z,157.50
2016-10-27T00:07:07.699Z,157.50
2016-10-27T00:08:08.326Z,157.50
2016-10-27T00:09:08.723Z,180.00
2016-10-27T00:10:09.243Z,225.00
2016-10-27T00:11:09.734Z,202.50
2016-10-27T00:12:10.400Z,202.50
2016-10-27T00:13:10.797Z,180.00
2016-10-27T00:14:11.433Z,202.50
2016-10-27T00:15:11.803Z,225.00
2016-10-27T00:16:12.324Z,180.00
2016-10-27T00:17:12.870Z,135.00
2016-10-27T00:18:13.353Z,202.50
2016-10-27T00:19:13.872Z,247.50
2016-10-27T00:20:14.397Z,247.50
2016-10-27T00:21:14.912Z,180.00
2016-10-27T00:22:15.460Z,337.50
2016-10-27T00:23:15.975Z,0.00
2016-10-27T00:24:16.470Z,337.50
2016-10-27T00:25:16.988Z,337.50
2016-10-27T00:26:17.508Z,337.50
2016-10-27T00:27:18.060Z,157.50
2016-10-27T00:28:18.553Z,157.50
2016-10-27T00:29:19.104Z,202.50
2016-10-27T00:30:19.595Z,202.50
2016-10-27T00:31:20.141Z,247.50
2016-10-27T00:32:20.664Z,202.50
2016-10-27T00:33:21.150Z,180.00
2016-10-27T00:34:21.817Z,180.00
2016-10-27T00:35:22.217Z,180.00
2016-10-27T00:36:22.706Z,225.00
2016-10-27T00:37:23.256Z,225.00
2016-10-27T00:38:23.747Z,247.50
2016-10-27T00:39:24.258Z,247.50
2016-10-27T00:40:24.782Z,337.50
2016-10-27T00:41:26.796Z,90.00
2016-10-27T00:42:25.969Z,45.00
2016-10-27T00:43:26.480Z,45.00
2016-10-27T00:44:26.853Z,22.50
2016-10-27T00:45:27.370Z,337.50
2016-10-27T00:46:28.038Z,337.50
2016-10-27T00:47:28.432Z,112.50
2016-10-27T00:48:28.925Z,112.50
2016-10-27T00:49:29.471Z,337.50
2016-10-27T00:50:29.963Z,337.50
2016-10-27T00:51:30.522Z,337.50
2016-10-27T00:52:31.150Z,337.50
2016-10-27T00:53:31.548Z,247.50
2016-10-27T00:54:32.034Z,180.00
2016-10-27T00:55:32.579Z,180.00
2016-10-27T00:56:33.219Z,180.00
2016-10-27T00:57:33.588Z,225.00
2016-10-27T00:58:34.134Z,270.00
2016-10-27T00:59:34.624Z,45.00
2016-10-27T01:00:35.146Z,90.00
2016-10-27T01:01:35.660Z,157.50
2016-10-27T01:02:36.326Z,157.50
2016-10-27T01:03:36.696Z,157.50
2016-10-27T01:04:37.242Z,157.50
2016-10-27T01:05:37.738Z,202.50
2016-10-27T01:06:38.258Z,180.00
2016-10-27T01:07:38.782Z,180.00
2016-10-27T01:08:39.306Z,247.50
2016-10-27T01:09:39.818Z,337.50
2016-10-27T01:10:40.342Z,337.50
2016-10-27T01:11:40.855Z,202.50
2016-10-27T01:12:41.521Z,202.50
2016-10-27T01:13:41.918Z,337.50
2016-10-27T01:14:42.439Z,337.50
2016-10-27T01:15:42.928Z,337.50
2016-10-27T01:16:43.473Z,337.50
2016-10-27T01:17:44.021Z,0.00
2016-10-27T01:18:44.629Z,337.50
2016-10-27T01:19:45.002Z,270.00
2016-10-27T01:20:45.523Z,225.00
2016-10-27T01:21:46.067Z,247.50
2016-10-27T01:22:46.707Z,202.50
2016-10-27T01:23:47.102Z,202.50
2016-10-27T01:24:47.623Z,225.00
2016-10-27T01:25:48.144Z,202.50
2016-10-27T01:26:48.780Z,180.00
2016-10-27T01:27:49.148Z,225.00
2016-10-27T01:28:49.697Z,270.00
2016-10-27T01:29:50.188Z,247.50
2016-10-27T01:30:50.853Z,270.00
2016-10-27T01:31:51.254Z,247.50
2016-10-27T01:32:51.775Z,247.50
2016-10-27T01:33:52.259Z,202.50
2016-10-27T01:34:52.800Z,270.00
2016-10-27T01:35:53.293Z,202.50
2016-10-27T01:36:53.959Z,247.50
2016-10-27T01:37:54.355Z,292.50
2016-10-27T01:38:54.874Z,292.50
2016-10-27T01:39:55.390Z,202.50
2016-10-27T01:40:55.908Z,202.50
2016-10-27T01:41:56.398Z,180.00
2016-10-27T01:42:56.941Z,157.50
2016-10-27T01:43:57.472Z,157.50
2016-10-27T01:44:57.983Z,180.00
2016-10-27T01:45:58.475Z,180.00
2016-10-27T01:46:59.019Z,180.00
2016-10-27T01:47:59.512Z,157.50
2016-10-27T01:49:00.055Z,157.50
2016-10-27T01:50:00.559Z,157.50
2016-10-27T01:51:01.200Z,270.00
2016-10-27T01:52:01.580Z,180.00
2016-10-27T01:53:02.084Z,247.50
2016-10-27T01:54:02.616Z,247.50
2016-10-27T01:55:03.258Z,247.50
2016-10-27T01:56:03.650Z,292.50
2016-10-27T01:57:04.145Z,315.00
2016-10-27T01:58:04.660Z,337.50
2016-10-27T01:59:05.321Z,292.50
2016-10-27T02:00:05.714Z,225.00
2016-10-27T02:01:06.231Z,225.00
2016-10-27T02:02:06.880Z,225.00
2016-10-27T02:03:07.245Z,202.50
2016-10-27T02:04:07.760Z,202.50
2016-10-27T02:05:08.424Z,225.00
2016-10-27T02:06:08.819Z,315.00
2016-10-27T02:07:09.312Z,337.50
2016-10-27T02:08:09.856Z,337.50
2016-10-27T02:09:10.348Z,202.50
2016-10-27T02:10:10.889Z,225.00
2016-10-27T02:11:11.409Z,247.50
2016-10-27T02:12:11.914Z,225.00
2016-10-27T02:13:12.562Z,247.50
2016-10-27T02:14:12.956Z,202.50
2016-10-27T02:15:13.476Z,180.00
2016-10-27T02:16:13.964Z,157.50
2016-10-27T02:17:14.503Z,202.50
2016-10-27T02:18:14.999Z,202.50
2016-10-27T02:19:15.541Z,270.00
2016-10-27T02:20:16.029Z,202.50
2016-10-27T02:21:16.576Z,337.50
2016-10-27T02:22:17.065Z,337.50
2016-10-27T02:23:17.734Z,225.00
2016-10-27T02:24:18.103Z,247.50
2016-10-27T02:25:18.627Z,247.50
2016-10-27T02:26:19.149Z,337.50
2016-10-27T02:27:19.698Z,202.50
2016-10-27T02:28:20.189Z,247.50
2016-10-27T02:29:20.705Z,337.50
2016-10-27T02:30:21.241Z,225.00
2016-10-27T02:31:21.891Z,225.00
2016-10-27T02:32:22.291Z,180.00
2016-10-27T02:33:22.787Z,202.50
2016-10-27T02:34:23.296Z,157.50
2016-10-27T02:35:23.838Z,247.50
2016-10-27T02:36:24.334Z,247.50
2016-10-27T02:37:24.845Z,225.00
2016-10-27T02:38:25.362Z,337.50
2016-10-27T02:39:25.879Z,337.50
2016-10-27T02:40:26.393Z,337.50
2016-10-27T02:41:27.110Z,225.00
2016-10-27T02:42:27.428Z,270.00
2016-10-27T02:43:27.975Z,270.00
2016-10-27T02:44:28.466Z,202.50
2016-10-27T02:45:28.983Z,180.00
2016-10-27T02:46:29.501Z,135.00
2016-10-27T02:47:30.162Z,225.00
2016-10-27T02:48:30.533Z,270.00
2016-10-27T02:49:31.199Z,270.00
2016-10-27T02:50:31.596Z,337.50
2016-10-27T02:51:32.116Z,315.00
2016-10-27T02:52:32.602Z,337.50
2016-10-27T02:53:33.121Z,270.00
2016-10-27T02:54:33.638Z,180.00
2016-10-27T02:55:34.176Z,157.50
2016-10-27T02:56:34.707Z,337.50
2016-10-27T02:57:35.211Z,202.50
2016-10-27T02:58:35.704Z,247.50
2016-10-27T02:59:36.251Z,247.50
2016-10-27T03:00:36.890Z,247.50
2016-10-27T03:01:37.404Z,337.50
2016-10-27T03:02:37.775Z,337.50
2016-10-27T03:03:38.440Z,225.00
2016-10-27T03:04:38.842Z,270.00
2016-10-27T03:05:39.337Z,337.50
2016-10-27T03:06:39.857Z,337.50
2016-10-27T03:07:40.522Z,180.00
2016-10-27T03:08:40.922Z,157.50
2016-10-27T03:09:41.442Z,202.50
2016-10-27T03:10:41.925Z,202.50
2016-10-27T03:11:42.443Z,202.50
2016-10-27T03:12:42.986Z,157.50
2016-10-27T03:13:43.508Z,225.00
2016-10-27T03:14:44.030Z,180.00
2016-10-27T03:15:44.543Z,247.50
2016-10-27T03:16:45.179Z,157.50
2016-10-27T03:17:45.571Z,225.00
2016-10-27T03:18:46.062Z,270.00
2016-10-27T03:19:46.581Z,225.00
2016-10-27T03:20:47.138Z,202.50
2016-10-27T03:21:47.638Z,247.50
2016-10-27T03:22:48.132Z,247.50
2016-10-27T03:23:48.652Z,337.50
2016-10-27T03:24:49.164Z,202.50
2016-10-27T03:25:49.698Z,315.00
2016-10-27T03:26:50.199Z,337.50
2016-10-27T03:27:50.865Z,225.00
2016-10-27T03:28:51.232Z,202.50
2016-10-27T03:29:51.747Z,337.50
2016-10-27T03:30:52.265Z,202.50
2016-10-27T03:31:52.815Z,202.50
2016-10-27T03:32:53.451Z,180.00
2016-10-27T03:33:53.963Z,247.50
2016-10-27T03:34:54.356Z,157.50
2016-10-27T03:35:54.888Z,180.00
2016-10-27T03:36:55.375Z,157.50
2016-10-27T03:37:55.924Z,202.50
2016-10-27T03:38:56.404Z,135.00
2016-10-27T03:39:56.952Z,225.00
2016-10-27T03:40:57.470Z,337.50
2016-10-27T03:41:58.105Z,270.00
2016-10-27T03:42:58.478Z,270.00
2016-10-27T03:43:59.003Z,292.50
2016-10-27T03:44:59.535Z,337.50
2016-10-27T03:46:00.188Z,292.50
2016-10-27T03:47:00.583Z,337.50
2016-10-27T03:48:01.103Z,202.50
2016-10-27T03:49:01.618Z,157.50
2016-10-27T03:50:02.262Z,270.00
2016-10-27T03:51:02.631Z,225.00
2016-10-27T03:52:03.146Z,337.50
2016-10-27T03:53:03.659Z,337.50
2016-10-27T03:54:04.179Z,270.00
2016-10-27T03:55:04.694Z,337.50
2016-10-27T03:56:05.203Z,337.50
2016-10-27T03:57:05.739Z,337.50
2016-10-27T03:58:06.384Z,337.50
2016-10-27T03:59:06.779Z,337.50
2016-10-27T04:00:07.465Z,270.00
2016-10-27T04:01:07.801Z,270.00
2016-10-27T04:02:08.309Z,202.50
2016-10-27T04:03:08.821Z,180.00
2016-10-27T04:04:09.488Z,337.50
2016-10-27T04:05:09.880Z,315.00
2016-10-27T04:06:10.377Z,337.50
2016-10-27T04:07:10.891Z,337.50
2016-10-27T04:08:11.433Z,337.50
2016-10-27T04:09:11.944Z,337.50
2016-10-27T04:10:12.588Z,292.50
2016-10-27T04:11:12.959Z,292.50
2016-10-27T04:12:13.488Z,337.50
2016-10-27T04:13:13.993Z,337.50
2016-10-27T04:14:14.510Z,337.50
2016-10-27T04:15:15.027Z,337.50
2016-10-27T04:16:15.543Z,337.50
2016-10-27T04:17:16.091Z,225.00
2016-10-27T04:18:16.586Z,225.00
2016-10-27T04:19:17.134Z,225.00
2016-10-27T04:20:17.641Z,0.00
2016-10-27T04:21:18.139Z,0.00
2016-10-27T04:22:18.810Z,0.00
2016-10-27T04:23:19.191Z,0.00
2016-10-27T04:24:19.849Z,0.00
2016-10-27T04:25:20.224Z,0.00
2016-10-27T04:26:20.771Z,0.00
2016-10-27T04:27:21.274Z,0.00
2016-10-27T04:28:21.774Z,0.00
2016-10-27T04:29:22.291Z,0.00
2016-10-27T04:30:22.959Z,0.00
2016-10-27T04:31:23.333Z,0.00
2016-10-27T04:32:23.871Z,0.00
2016-10-27T04:33:24.395Z,0.00
2016-10-27T04:34:24.918Z,0.00
2016-10-27T04:35:25.430Z,0.00
2016-10-27T04:36:25.957Z,0.00
2016-10-27T04:37:26.438Z,0.00
2016-10-27T04:38:26.962Z,0.00
2016-10-27T04:39:27.506Z,0.00
2016-10-27T04:40:28.144Z,0.00
2016-10-27T04:41:28.556Z,0.00
2016-10-27T04:42:29.064Z,0.00
2016-10-27T04:43:29.576Z,0.00
2016-10-27T04:44:30.218Z,0.00
2016-10-27T04:45:30.589Z,0.00
2016-10-27T04:46:31.135Z,0.00
2016-10-27T04:47:31.656Z,0.00
2016-10-27T04:48:32.142Z,0.00
2016-10-27T04:49:32.663Z,0.00
2016-10-27T04:50:33.181Z,0.00
2016-10-27T04:51:33.700Z,0.00
2016-10-27T04:52:34.259Z,0.00
2016-10-27T04:53:34.888Z,0.00
2016-10-27T04:54:35.263Z,0.00
2016-10-27T04:55:35.778Z,0.00
2016-10-27T04:56:36.300Z,0.00
2016-10-27T04:57:36.843Z,0.00
2016-10-27T04:58:37.356Z,0.00
2016-10-27T04:59:37.893Z,0.00
2016-10-27T05:00:38.407Z,0.00
2016-10-27T05:01:38.911Z,0.00
2016-10-27T05:02:39.424Z,0.00
2016-10-27T05:03:39.964Z,0.00
2016-10-27T05:04:40.489Z,0.00
2016-10-27T05:05:40.983Z,0.00
2016-10-27T05:06:41.648Z,0.00
2016-10-27T05:07:42.022Z,0.00
2016-10-27T05:08:42.688Z,0.00
2016-10-27T05:09:43.060Z,0.00
2016-10-27T05:10:43.722Z,202.50
2016-10-27T05:11:44.090Z,202.50
2016-10-27T05:12:44.640Z,202.50
2016-10-27T05:13:45.155Z,225.00
2016-10-27T05:14:45.794Z,225.00
2016-10-27T05:15:46.161Z,247.50
2016-10-27T05:16:46.679Z,225.00
2016-10-27T05:17:47.221Z,202.50
2016-10-27T05:18:47.716Z,157.50
2016-10-27T05:19:48.388Z,0.00
2016-10-27T05:20:48.759Z,0.00
2016-10-27T05:21:49.278Z,0.00
2016-10-27T05:22:49.826Z,0.00
2016-10-27T05:23:50.342Z,202.50
2016-10-27T05:24:50.861Z,225.00
2016-10-27T05:25:51.375Z,202.50
2016-10-27T05:26:51.870Z,202.50
2016-10-27T05:27:52.412Z,247.50
2016-10-27T05:28:52.935Z,315.00
2016-10-27T05:29:53.415Z,225.00
2016-10-27T05:30:53.935Z,202.50
2016-10-27T05:31:54.452Z,0.00
2016-10-27T05:32:55.122Z,0.00
2016-10-27T05:33:55.638Z,0.00
2016-10-27T05:34:56.012Z,0.00
2016-10-27T05:35:56.549Z,0.00
2016-10-27T05:36:57.073Z,0.00
2016-10-27T05:37:57.589Z,0.00
2016-10-27T05:38:58.089Z,0.00
2016-10-27T05:39:58.607Z,0.00
2016-10-27T05:40:59.157Z,0.00
2016-10-27T05:41:59.647Z,0.00
2016-10-27T05:43:00.196Z,0.00
2016-10-27T05:44:00.686Z,0.00
2016-10-27T05:45:01.234Z,0.00
2016-10-27T05:46:01.753Z,0.00
2016-10-27T05:47:02.269Z,157.50
2016-10-27T05:48:02.761Z,202.50
2016-10-27T05:49:03.312Z,225.00
2016-10-27T05:50:03.821Z,225.00
2016-10-27T05:51:04.316Z,247.50
2016-10-27T05:52:04.858Z,202.50
2016-10-27T05:53:05.347Z,180.00
2016-10-27T05:54:05.896Z,247.50
2016-10-27T05:55:06.530Z,180.00
2016-10-27T05:56:06.918Z,337.50
2016-10-27T05:57:07.565Z,337.50
2016-10-27T05:58:07.960Z,225.00
2016-10-27T05:59:08.597Z,157.50
2016-10-27T06:00:08.991Z,225.00
2016-10-27T06:01:09.489Z,337.50
2016-10-27T06:02:10.006Z,180.00
2016-10-27T06:03:10.552Z,180.00
2016-10-27T06:04:11.056Z,0.00
2016-10-27T06:05:11.699Z,0.00
2016-10-27T06:06:12.103Z,0.00
2016-10-27T06:07:12.630Z,0.00
2016-10-27T06:08:13.149Z,0.00
2016-10-27T06:09:13.674Z,0.00
2016-10-27T06:10:14.170Z,0.00
2016-10-27T06:11:14.696Z,0.00
2016-10-27T06:12:15.222Z,0.00
2016-10-27T06:13:15.891Z,0.00
2016-10-27T06:14:16.288Z,0.00
2016-10-27T06:15:16.790Z,0.00
2016-10-27T06:16:17.335Z,0.00
2016-10-27T06:17:17.863Z,0.00
2016-10-27T06:18:18.391Z,0.00
2016-10-27T06:19:18.891Z,0.00
2016-10-27T06:20:19.446Z,0.00
2016-10-27T06:21:19.975Z,0.00
2016-10-27T06:22:20.489Z,0.00
2016-10-27T06:23:21.136Z,0.00
2016-10-27T06:24:21.505Z,0.00
2016-10-27T06:25:22.057Z,0.00
2016-10-27T06:26:22.557Z,0.00
2016-10-27T06:27:23.116Z,0.00
2016-10-27T06:28:23.605Z,0.00
2016-10-27T06:29:24.153Z,0.00
2016-10-27T06:30:24.669Z,0.00
2016-10-27T06:31:25.200Z,0.00
2016-10-27T06:32:25.729Z,0.00
2016-10-27T06:33:26.247Z,0.00
2016-10-27T06:34:26.746Z,0.00
2016-10-27T06:35:27.304Z,0.00
2016-10-27T06:36:27.825Z,0.00
2016-10-27T06:37:28.321Z,0.00
2016-10-27T06:38:28.986Z,0.00
2016-10-27T06:39:29.358Z,337.50
2016-10-27T06:40:29.874Z,247.50
2016-10-27T06:41:30.544Z,157.50
2016-10-27T06:42:30.917Z,202.50
2016-10-27T06:43:31.434Z,0.00
2016-10-27T06:44:31.949Z,0.00
2016-10-27T06:45:32.472Z,180.00
2016-10-27T06:46:33.016Z,157.50
2016-10-27T06:47:33.648Z,202.50
2016-10-27T06:48:34.018Z,247.50
2016-10-27T06:49:34.535Z,225.00
2016-10-27T06:50:35.202Z,247.50
2016-10-27T06:51:35.579Z,247.50
2016-10-27T06:52:36.110Z,247.50
2016-10-27T06:53:36.758Z,225.00
2016-10-27T06:54:37.130Z,180.00
2016-10-27T06:55:37.651Z,225.00
2016-10-27T06:56:38.201Z,157.50
2016-10-27T06:57:38.694Z,180.00
2016-10-27T06:58:39.213Z,135.00
2016-10-27T06:59:39.739Z,315.00
2016-10-27T07:00:40.254Z,180.00
2016-10-27T07:01:40.920Z,202.50
2016-10-27T07:02:41.314Z,225.00
2016-10-27T07:03:41.834Z,157.50
2016-10-27T07:04:42.322Z,225.00
2016-10-27T07:05:42.838Z,0.00
2016-10-27T07:06:43.355Z,0.00
2016-10-27T07:07:43.906Z,0.00
2016-10-27T07:08:44.420Z,0.00
2016-10-27T07:09:44.940Z,337.50
2016-10-27T07:10:45.426Z,180.00
2016-10-27T07:11:45.946Z,202.50
2016-10-27T07:12:46.607Z,247.50
2016-10-27T07:13:47.001Z,202.50
2016-10-27T07:14:47.497Z,337.50
2016-10-27T07:15:48.018Z,157.50
2016-10-27T07:16:48.528Z,292.50
2016-10-27T07:17:49.197Z,337.50
2016-10-27T07:18:49.715Z,225.00
2016-10-27T07:19:50.084Z,292.50
2016-10-27T07:20:50.602Z,337.50
2016-10-27T07:21:51.132Z,337.50
2016-10-27T07:22:51.638Z,202.50
2016-10-27T07:23:52.160Z,270.00
2016-10-27T07:24:52.674Z,337.50
2016-10-27T07:25:53.224Z,225.00
2016-10-27T07:26:53.732Z,135.00
2016-10-27T07:27:54.374Z,0.00
2016-10-27T07:28:54.750Z,0.00
2016-10-27T07:29:55.296Z,0.00
2016-10-27T07:30:55.785Z,180.00
2016-10-27T07:31:56.306Z,202.50
2016-10-27T07:32:56.846Z,270.00
2016-10-27T07:33:57.484Z,225.00
2016-10-27T07:34:57.855Z,157.50
2016-10-27T07:35:58.410Z,225.00
2016-10-27T07:36:58.898Z,202.50
2016-10-27T07:37:59.450Z,202.50
2016-10-27T07:38:59.944Z,157.50
2016-10-27T07:40:00.462Z,247.50
2016-10-27T07:41:01.018Z,225.00
2016-10-27T07:42:01.497Z,247.50
2016-10-27T07:43:02.017Z,225.00
2016-10-27T07:44:02.683Z,337.50
2016-10-27T07:45:03.054Z,337.50
2016-10-27T07:46:03.572Z,180.00
2016-10-27T07:47:04.114Z,180.00
2016-10-27T07:48:04.752Z,180.00
2016-10-27T07:49:05.142Z,270.00
2016-10-27T07:50:05.640Z,270.00
2016-10-27T07:51:06.159Z,0.00
2016-10-27T07:52:06.680Z,0.00
2016-10-27T07:53:07.227Z,0.00
2016-10-27T07:54:07.739Z,202.50
2016-10-27T07:55:08.237Z,180.00
2016-10-27T07:56:08.777Z,225.00
2016-10-27T07:57:09.359Z,180.00
2016-10-27T07:58:09.936Z,247.50
2016-10-27T07:59:10.315Z,202.50
2016-10-27T08:00:10.850Z,180.00
2016-10-27T08:01:11.371Z,202.50
2016-10-27T08:02:11.872Z,247.50
2016-10-27T08:03:12.408Z,247.50
2016-10-27T08:04:12.899Z,247.50
2016-10-27T08:05:13.429Z,202.50
2016-10-27T08:06:14.076Z,225.00
2016-10-27T08:07:14.482Z,247.50
2016-10-27T08:08:15.112Z,247.50
2016-10-27T08:09:15.512Z,202.50
2016-10-27T08:10:15.996Z,180.00
2016-10-27T08:11:16.551Z,292.50
2016-10-27T08:12:17.033Z,270.00
2016-10-27T08:13:17.699Z,247.50
2016-10-27T08:14:18.094Z,247.50
2016-10-27T08:15:18.607Z,292.50
2016-10-27T08:16:19.261Z,180.00
2016-10-27T08:17:19.636Z,157.50
2016-10-27T08:18:20.306Z,225.00
2016-10-27T08:19:20.679Z,202.50
2016-10-27T08:20:21.200Z,337.50
2016-10-27T08:21:21.751Z,225.00
2016-10-27T08:22:22.231Z,225.00
2016-10-27T08:23:22.777Z,292.50
2016-10-27T08:24:23.268Z,270.00
2016-10-27T08:25:23.787Z,247.50
2016-10-27T08:26:24.453Z,157.50
2016-10-27T08:27:24.848Z,157.50
2016-10-27T08:28:25.345Z,247.50
2016-10-27T08:29:25.865Z,270.00
2016-10-27T08:30:26.405Z,270.00
2016-10-27T08:31:26.895Z,337.50
2016-10-27T08:32:27.563Z,247.50
2016-10-27T08:33:27.934Z,225.00
2016-10-27T08:34:28.471Z,247.50
2016-10-27T08:35:28.978Z,225.00
2016-10-27T08:36:29.490Z,247.50
2016-10-27T08:37:30.157Z,225.00
2016-10-27T08:38:30.556Z,247.50
2016-10-27T08:39:31.047Z,292.50
2016-10-27T08:40:31.711Z,0.00
2016-10-27T08:41:32.080Z,180.00
2016-10-27T08:42:32.599Z,247.50
2016-10-27T08:43:33.120Z,270.00
2016-10-27T08:44:33.670Z,112.50
2016-10-27T08:45:34.305Z,202.50
2016-10-27T08:46:34.705Z,270.00
2016-10-27T08:47:35.236Z,202.50
2016-10-27T08:48:35.712Z,247.50
2016-10-27T08:49:36.256Z,270.00
2016-10-27T08:50:36.777Z,270.00
2016-10-27T08:51:37.275Z,202.50
2016-10-27T08:52:37.935Z,0.00
2016-10-27T08:53:38.311Z,0.00
2016-10-27T08:54:38.854Z,0.00
2016-10-27T08:55:39.363Z,0.00
2016-10-27T08:56:39.885Z,135.00
2016-10-27T08:57:40.408Z,135.00
2016-10-27T08:58:40.926Z,135.00
2016-10-27T08:59:41.443Z,135.00
2016-10-27T09:00:41.958Z,180.00
2016-10-27T09:01:42.477Z,202.50
2016-10-27T09:02:43.027Z,0.00
2016-10-27T09:03:43.548Z,0.00
2016-10-27T09:04:44.061Z,0.00
2016-10-27T09:05:44.547Z,0.00
2016-10-27T09:06:45.072Z,0.00
2016-10-27T09:07:45.585Z,0.00
2016-10-27T09:08:46.135Z,0.00
2016-10-27T09:09:46.655Z,0.00
2016-10-27T09:10:47.284Z,0.00
2016-10-27T09:11:47.682Z,0.00
2016-10-27T09:12:48.321Z,0.00
2016-10-27T09:13:48.692Z,0.00
2016-10-27T09:14:49.212Z,0.00
2016-10-27T09:15:49.752Z,0.00
2016-10-27T09:16:50.388Z,157.50
2016-10-27T09:17:50.760Z,202.50
2016-10-27T09:18:51.424Z,337.50
2016-10-27T09:19:51.821Z,180.00
2016-10-27T09:20:52.314Z,180.00
2016-10-27T09:21:52.832Z,135.00
2016-10-27T09:22:53.496Z,337.50
2016-10-27T09:23:53.868Z,202.50
2016-10-27T09:24:54.389Z,337.50
2016-10-27T09:25:54.926Z,157.50
2016-10-27T09:26:55.429Z,337.50
2016-10-27T09:27:55.934Z,247.50
2016-10-27T09:28:56.482Z,247.50
2016-10-27T09:29:57.000Z,247.50
2016-10-27T09:30:57.636Z,157.50
2016-10-27T09:31:58.026Z,157.50
2016-10-27T09:32:58.555Z,225.00
2016-10-27T09:33:59.044Z,225.00
2016-10-27T09:34:59.576Z,0.00
2016-10-27T09:36:00.113Z,337.50
2016-10-27T09:37:00.617Z,157.50
2016-10-27T09:38:01.151Z,202.50
2016-10-27T09:39:01.639Z,0.00
2016-10-27T09:40:02.162Z,0.00
2016-10-27T09:41:02.683Z,0.00
2016-10-27T09:42:03.196Z,0.00
2016-10-27T09:43:03.715Z,0.00
2016-10-27T09:44:04.234Z,0.00
2016-10-27T09:45:04.786Z,0.00
2016-10-27T09:46:05.270Z,0.00
2016-10-27T09:47:05.820Z,0.00
2016-10-27T09:48:06.314Z,0.00
2016-10-27T09:49:06.834Z,0.00
2016-10-27T09:50:07.351Z,0.00
2016-10-27T09:51:07.867Z,0.00
2016-10-27T09:52:08.418Z,0.00
2016-10-27T09:53:08.940Z,0.00
2016-10-27T09:54:09.457Z,0.00
2016-10-27T09:55:10.093Z,0.00
2016-10-27T09:56:10.612Z,0.00
2016-10-27T09:57:10.981Z,0.00
2016-10-27T09:58:11.650Z,0.00
2016-10-27T09:59:12.043Z,0.00
2016-10-27T10:00:12.559Z,0.00
2016-10-27T10:01:13.050Z,202.50
2016-10-27T10:02:13.570Z,180.00
2016-10-27T10:03:14.097Z,202.50
2016-10-27T10:04:14.645Z,180.00
2016-10-27T10:05:15.128Z,180.00
2016-10-27T10:06:15.671Z,135.00
2016-10-27T10:07:16.311Z,225.00
2016-10-27T10:08:16.827Z,270.00
2016-10-27T10:09:17.199Z,202.50
2016-10-27T10:10:17.739Z,157.50
2016-10-27T10:11:18.381Z,247.50
2016-10-27T10:12:18.753Z,202.50
2016-10-27T10:13:19.302Z,180.00
2016-10-27T10:14:19.840Z,225.00
2016-10-27T10:15:20.470Z,0.00
2016-10-27T10:16:20.840Z,0.00
2016-10-27T10:17:21.361Z,337.50
2016-10-27T10:18:21.873Z,202.50
2016-10-27T10:19:22.542Z,270.00
2016-10-27T10:20:22.910Z,247.50
2016-10-27T10:21:23.430Z,180.00
2016-10-27T10:22:23.946Z,180.00
2016-10-27T10:23:24.460Z,225.00
2016-10-27T10:24:24.988Z,202.50
2016-10-27T10:25:25.644Z,67.50
2016-10-27T10:26:26.020Z,225.00
2016-10-27T10:27:26.538Z,202.50
2016-10-27T10:28:27.058Z,180.00
2016-10-27T10:29:27.719Z,157.50
2016-10-27T10:30:28.097Z,225.00
2016-10-27T10:31:28.612Z,135.00
2016-10-27T10:32:29.158Z,225.00
2016-10-27T10:33:29.795Z,225.00
2016-10-27T10:34:30.192Z,225.00
2016-10-27T10:35:30.695Z,180.00
2016-10-27T10:36:31.201Z,225.00
2016-10-27T10:37:31.749Z,202.50
2016-10-27T10:38:32.232Z,202.50
2016-10-27T10:39:32.749Z,247.50
2016-10-27T10:40:33.289Z,337.50
2016-10-27T10:41:33.931Z,270.00
2016-10-27T10:42:34.447Z,225.00
2016-10-27T10:43:34.961Z,270.00
2016-10-27T10:44:35.361Z,180.00
2016-10-27T10:45:35.999Z,337.50
2016-10-27T10:46:36.367Z,202.50
2016-10-27T10:47:36.922Z,225.00
2016-10-27T10:48:37.404Z,180.00
2016-10-27T10:49:38.071Z,225.00
2016-10-27T10:50:38.465Z,202.50
2016-10-27T10:51:39.114Z,337.50
2016-10-27T10:52:39.486Z,292.50
2016-10-27T10:53:40.154Z,337.50
2016-10-27T10:54:40.524Z,337.50
2016-10-27T10:55:41.068Z,337.50
2016-10-27T10:56:41.561Z,157.50
2016-10-27T10:57:42.109Z,180.00
2016-10-27T10:58:42.621Z,180.00
2016-10-27T10:59:43.118Z,225.00
2016-10-27T11:00:43.636Z,225.00
2016-10-27T11:01:44.296Z,315.00
2016-10-27T11:02:44.673Z,292.50
2016-10-27T11:03:45.183Z,225.00
2016-10-27T11:04:45.697Z,247.50
2016-10-27T11:05:46.214Z,157.50
2016-10-27T11:06:46.733Z,202.50
2016-10-27T11:07:47.400Z,337.50
2016-10-27T11:08:47.769Z,337.50
2016-10-27T11:09:48.287Z,337.50
2016-10-27T11:10:48.803Z,337.50
2016-10-27T11:11:49.463Z,202.50
2016-10-27T11:12:49.983Z,337.50
2016-10-27T11:13:50.353Z,180.00
2016-10-27T11:14:50.871Z,337.50
2016-10-27T11:15:51.396Z,337.50
2016-10-27T11:16:51.902Z,337.50
2016-10-27T11:17:52.432Z,337.50
2016-10-27T11:18:52.938Z,45.00
2016-10-27T11:19:53.455Z,180.00
2016-10-27T11:20:53.971Z,157.50
2016-10-27T11:21:54.518Z,157.50
2016-10-27T11:22:55.018Z,0.00
2016-10-27T11:23:55.549Z,157.50
2016-10-27T11:24:56.040Z,180.00
2016-10-27T11:25:56.707Z,247.50
2016-10-27T11:26:57.074Z,247.50
2016-10-27T11:27:57.594Z,337.50
2016-10-27T11:28:58.143Z,225.00
2016-10-27T11:29:58.665Z,180.00
2016-10-27T11:30:59.197Z,180.00
2016-10-27T11:31:59.826Z,157.50
2016-10-27T11:33:00.216Z,180.00
2016-10-27T11:34:00.717Z,247.50
2016-10-27T11:35:01.234Z,157.50
2016-10-27T11:36:01.785Z,0.00
2016-10-27T11:37:02.267Z,247.50
2016-10-27T11:38:02.934Z,292.50
2016-10-27T11:39:03.303Z,270.00
2016-10-27T11:40:03.848Z,270.00
2016-10-27T11:41:04.336Z,202.50
2016-10-27T11:42:04.883Z,157.50
2016-10-27T11:43:05.370Z,202.50
2016-10-27T11:44:05.885Z,157.50
2016-10-27T11:45:06.403Z,337.50
2016-10-27T11:46:06.925Z,157.50
2016-10-27T11:47:07.440Z,157.50
2016-10-27T11:48:08.104Z,337.50
2016-10-27T11:49:08.473Z,337.50
2016-10-27T11:50:08.992Z,225.00
2016-10-27T11:51:09.514Z,337.50
2016-10-27T11:52:10.177Z,157.50
2016-10-27T11:53:10.550Z,270.00
2016-10-27T11:54:11.215Z,135.00
2016-10-27T11:55:11.743Z,225.00
2016-10-27T11:56:12.250Z,202.50
2016-10-27T11:57:12.629Z,157.50
2016-10-27T11:58:13.155Z,247.50
2016-10-27T11:59:13.684Z,270.00
2016-10-27T12:00:14.321Z,135.00
2016-10-27T12:01:14.691Z,0.00
2016-10-27T12:02:15.212Z,270.00
2016-10-27T12:03:15.879Z,135.00
2016-10-27T12:04:16.277Z,337.50
2016-10-27T12:05:16.790Z,180.00
2016-10-27T12:06:17.308Z,337.50
2016-10-27T12:07:17.834Z,225.00
2016-10-27T12:08:18.325Z,0.00
2016-10-27T12:09:18.844Z,0.00
2016-10-27T12:10:19.363Z,0.00
2016-10-27T12:11:19.906Z,0.00
2016-10-27T12:12:20.436Z,0.00
2016-10-27T12:13:20.927Z,0.00
2016-10-27T12:14:21.590Z,0.00
2016-10-27T12:15:21.992Z,0.00
2016-10-27T12:16:22.627Z,0.00
2016-10-27T12:17:23.014Z,157.50
2016-10-27T12:18:23.514Z,157.50
2016-10-27T12:19:24.060Z,112.50
2016-10-27T12:20:24.576Z,337.50
2016-10-27T12:21:25.068Z,135.00
2016-10-27T12:22:25.729Z,0.00
2016-10-27T12:23:26.100Z,0.00
2016-10-27T12:24:26.616Z,0.00
2016-10-27T12:25:27.133Z,0.00
2016-10-27T12:26:27.801Z,0.00
2016-10-27T12:27:28.172Z,270.00
2016-10-27T12:28:28.709Z,180.00
2016-10-27T12:29:29.207Z,135.00
2016-10-27T12:30:29.731Z,157.50
2016-10-27T12:31:30.243Z,202.50
2016-10-27T12:32:30.791Z,247.50
2016-10-27T12:33:31.313Z,270.00
2016-10-27T12:34:31.796Z,337.50
2016-10-27T12:35:32.318Z,337.50
2016-10-27T12:36:32.842Z,337.50
2016-10-27T12:37:33.365Z,337.50
2016-10-27T12:38:33.901Z,0.00
2016-10-27T12:39:34.386Z,22.50
2016-10-27T12:40:34.902Z,337.50
2016-10-27T12:41:35.421Z,337.50
2016-10-27T12:42:35.938Z,337.50
2016-10-27T12:43:36.455Z,337.50
2016-10-27T12:44:37.117Z,337.50
2016-10-27T12:45:37.491Z,0.00
2016-10-27T12:46:38.041Z,337.50